sensor_id;sensor_type;location;lat;lon;timestamp;P1;durP1;ratioP1;P2;durP2;ratioP2
29206;SDS011;16247;50.840;4.382;2023-10-09T00:00:58;13.95;;;6.30;;
29206;SDS011;16247;50.840;4.382;2023-10-09T00:03:31;11.45;;;6.60;;
29206;SDS011;16247;50.840;4.382;2023-10-09T00:05:57;12.38;;;7.07;;
29206;SDS011;16247;50.840;4.382;2023-10-09T00:08:23;12.27;;;7.57;;
29206;SDS011;16247;50.840;4.382;2023-10-09T00:10:55;12.90;;;6.28;;
29206;SDS011;16247;50.840;4.382;2023-10-09T00:13:24;12.95;;;7.18;;
29206;SDS011;16247;50.840;4.382;2023-10-09T00:15:57;15.10;;;7.68;;
29206;SDS011;16247;50.840;4.382;2023-10-09T00:18:33;11.85;;;6.30;;
29206;SDS011;16247;50.840;4.382;2023-10-09T00:21:00;11.82;;;6.90;;
29206;SDS011;16247;50.840;4.382;2023-10-09T00:23:27;10.45;;;6.55;;
29206;SDS011;16247;50.840;4.382;2023-10-09T00:25:53;13.05;;;7.05;;
29206;SDS011;16247;50.840;4.382;2023-10-09T00:28:35;12.35;;;6.78;;
29206;SDS011;16247;50.840;4.382;2023-10-09T00:31:03;11.57;;;7.37;;
29206;SDS011;16247;50.840;4.382;2023-10-09T00:33:36;13.57;;;7.85;;
29206;SDS011;16247;50.840;4.382;2023-10-09T00:36:02;16.05;;;6.72;;
29206;SDS011;16247;50.840;4.382;2023-10-09T00:38:35;10.80;;;6.50;;
29206;SDS011;16247;50.840;4.382;2023-10-09T00:41:05;11.85;;;6.40;;
29206;SDS011;16247;50.840;4.382;2023-10-09T00:43:33;16.25;;;7.18;;
29206;SDS011;16247;50.840;4.382;2023-10-09T00:46:02;21.48;;;11.88;;
29206;SDS011;16247;50.840;4.382;2023-10-09T00:48:37;15.30;;;7.15;;
29206;SDS011;16247;50.840;4.382;2023-10-09T00:51:05;15.43;;;8.30;;
29206;SDS011;16247;50.840;4.382;2023-10-09T00:53:44;12.88;;;6.97;;
29206;SDS011;16247;50.840;4.382;2023-10-09T00:56:16;12.65;;;6.80;;
29206;SDS011;16247;50.840;4.382;2023-10-09T00:58:55;11.57;;;6.82;;
29206;SDS011;16247;50.840;4.382;2023-10-09T01:01:35;12.10;;;7.75;;
29206;SDS011;16247;50.840;4.382;2023-10-09T01:04:15;12.32;;;6.97;;
29206;SDS011;16247;50.840;4.382;2023-10-09T01:06:43;12.52;;;6.57;;
29206;SDS011;16247;50.840;4.382;2023-10-09T01:09:16;10.73;;;7.00;;
29206;SDS011;16247;50.840;4.382;2023-10-09T01:11:42;13.55;;;7.43;;
29206;SDS011;16247;50.840;4.382;2023-10-09T01:14:28;13.07;;;7.13;;
29206;SDS011;16247;50.840;4.382;2023-10-09T01:17:06;12.77;;;7.88;;
29206;SDS011;16247;50.840;4.382;2023-10-09T01:19:35;12.13;;;7.38;;
29206;SDS011;16247;50.840;4.382;2023-10-09T01:22:01;14.57;;;7.95;;
29206;SDS011;16247;50.840;4.382;2023-10-09T01:24:38;16.73;;;7.90;;
29206;SDS011;16247;50.840;4.382;2023-10-09T01:27:07;11.20;;;7.63;;
29206;SDS011;16247;50.840;4.382;2023-10-09T01:29:40;12.27;;;8.05;;
29206;SDS011;16247;50.840;4.382;2023-10-09T01:32:11;11.70;;;8.15;;
29206;SDS011;16247;50.840;4.382;2023-10-09T01:34:44;18.65;;;8.50;;
29206;SDS011;16247;50.840;4.382;2023-10-09T01:37:17;14.50;;;7.57;;
29206;SDS011;16247;50.840;4.382;2023-10-09T01:39:47;12.52;;;8.10;;
29206;SDS011;16247;50.840;4.382;2023-10-09T01:42:47;12.15;;;6.70;;
29206;SDS011;16247;50.840;4.382;2023-10-09T01:45:12;13.57;;;7.93;;
29206;SDS011;16247;50.840;4.382;2023-10-09T01:47:55;12.68;;;7.90;;
29206;SDS011;16247;50.840;4.382;2023-10-09T01:50:21;13.63;;;8.07;;
29206;SDS011;16247;50.840;4.382;2023-10-09T01:52:50;13.30;;;7.05;;
29206;SDS011;16247;50.840;4.382;2023-10-09T01:55:19;15.32;;;8.18;;
29206;SDS011;16247;50.840;4.382;2023-10-09T01:58:07;13.00;;;7.13;;
29206;SDS011;16247;50.840;4.382;2023-10-09T02:00:49;13.10;;;7.45;;
29206;SDS011;16247;50.840;4.382;2023-10-09T02:03:27;15.07;;;8.35;;
29206;SDS011;16247;50.840;4.382;2023-10-09T02:05:54;13.73;;;7.45;;
29206;SDS011;16247;50.840;4.382;2023-10-09T02:08:28;14.23;;;7.63;;
29206;SDS011;16247;50.840;4.382;2023-10-09T02:10:55;15.00;;;7.80;;
29206;SDS011;16247;50.840;4.382;2023-10-09T02:13:22;10.65;;;6.88;;
29206;SDS011;16247;50.840;4.382;2023-10-09T02:15:57;12.25;;;7.13;;
29206;SDS011;16247;50.840;4.382;2023-10-09T02:18:40;12.82;;;6.80;;
29206;SDS011;16247;50.840;4.382;2023-10-09T02:21:17;12.65;;;7.70;;
29206;SDS011;16247;50.840;4.382;2023-10-09T02:23:53;13.27;;;7.47;;
29206;SDS011;16247;50.840;4.382;2023-10-09T02:26:22;13.07;;;7.05;;
29206;SDS011;16247;50.840;4.382;2023-10-09T02:28:52;14.23;;;7.68;;
29206;SDS011;16247;50.840;4.382;2023-10-09T02:31:25;12.23;;;7.68;;
29206;SDS011;16247;50.840;4.382;2023-10-09T02:34:00;18.98;;;8.70;;
29206;SDS011;16247;50.840;4.382;2023-10-09T02:36:30;11.93;;;7.97;;
29206;SDS011;16247;50.840;4.382;2023-10-09T02:38:56;13.63;;;7.78;;
29206;SDS011;16247;50.840;4.382;2023-10-09T02:41:25;14.60;;;7.68;;
29206;SDS011;16247;50.840;4.382;2023-10-09T02:43:54;12.73;;;7.53;;
29206;SDS011;16247;50.840;4.382;2023-10-09T02:46:36;14.65;;;8.15;;
29206;SDS011;16247;50.840;4.382;2023-10-09T02:49:02;10.82;;;7.90;;
29206;SDS011;16247;50.840;4.382;2023-10-09T02:51:34;16.75;;;8.25;;
29206;SDS011;16247;50.840;4.382;2023-10-09T02:54:06;16.38;;;7.80;;
29206;SDS011;16247;50.840;4.382;2023-10-09T02:56:43;12.13;;;7.75;;
29206;SDS011;16247;50.840;4.382;2023-10-09T02:59:12;11.93;;;7.75;;
29206;SDS011;16247;50.840;4.382;2023-10-09T03:01:39;13.90;;;8.10;;
29206;SDS011;16247;50.840;4.382;2023-10-09T03:04:06;15.90;;;8.18;;
29206;SDS011;16247;50.840;4.382;2023-10-09T03:06:36;12.20;;;7.93;;
29206;SDS011;16247;50.840;4.382;2023-10-09T03:09:14;15.30;;;8.57;;
29206;SDS011;16247;50.840;4.382;2023-10-09T03:11:45;17.48;;;8.70;;
29206;SDS011;16247;50.840;4.382;2023-10-09T03:14:18;16.90;;;9.40;;
29206;SDS011;16247;50.840;4.382;2023-10-09T03:16:51;16.25;;;8.80;;
29206;SDS011;16247;50.840;4.382;2023-10-09T03:19:17;14.00;;;8.30;;
29206;SDS011;16247;50.840;4.382;2023-10-09T03:21:43;14.27;;;8.85;;
29206;SDS011;16247;50.840;4.382;2023-10-09T03:24:13;14.43;;;8.75;;
29206;SDS011;16247;50.840;4.382;2023-10-09T03:26:41;15.50;;;7.82;;
29206;SDS011;16247;50.840;4.382;2023-10-09T03:29:10;13.70;;;8.40;;
29206;SDS011;16247;50.840;4.382;2023-10-09T03:31:36;13.20;;;8.07;;
29206;SDS011;16247;50.840;4.382;2023-10-09T03:34:04;14.95;;;8.88;;
29206;SDS011;16247;50.840;4.382;2023-10-09T03:36:33;15.48;;;8.95;;
29206;SDS011;16247;50.840;4.382;2023-10-09T03:39:04;12.88;;;7.30;;
29206;SDS011;16247;50.840;4.382;2023-10-09T03:41:43;16.75;;;8.80;;
29206;SDS011;16247;50.840;4.382;2023-10-09T03:44:12;14.23;;;8.48;;
29206;SDS011;16247;50.840;4.382;2023-10-09T03:46:39;17.27;;;8.85;;
29206;SDS011;16247;50.840;4.382;2023-10-09T03:49:09;16.25;;;8.35;;
29206;SDS011;16247;50.840;4.382;2023-10-09T03:51:36;12.98;;;8.50;;
29206;SDS011;16247;50.840;4.382;2023-10-09T03:54:02;12.50;;;7.15;;
29206;SDS011;16247;50.840;4.382;2023-10-09T03:56:32;16.65;;;8.80;;
29206;SDS011;16247;50.840;4.382;2023-10-09T03:59:00;12.82;;;8.23;;
29206;SDS011;16247;50.840;4.382;2023-10-09T04:01:26;16.13;;;9.15;;
29206;SDS011;16247;50.840;4.382;2023-10-09T04:04:03;13.75;;;7.97;;
29206;SDS011;16247;50.840;4.382;2023-10-09T04:06:32;17.40;;;9.68;;
29206;SDS011;16247;50.840;4.382;2023-10-09T04:08:59;15.13;;;8.07;;
29206;SDS011;16247;50.840;4.382;2023-10-09T04:11:38;14.40;;;8.23;;
29206;SDS011;16247;50.840;4.382;2023-10-09T04:14:08;15.02;;;8.55;;
29206;SDS011;16247;50.840;4.382;2023-10-09T04:16:46;14.93;;;8.57;;
29206;SDS011;16247;50.840;4.382;2023-10-09T04:19:28;14.63;;;8.13;;
29206;SDS011;16247;50.840;4.382;2023-10-09T04:21:55;16.00;;;9.18;;
29206;SDS011;16247;50.840;4.382;2023-10-09T04:24:24;11.90;;;8.13;;
29206;SDS011;16247;50.840;4.382;2023-10-09T04:26:50;14.18;;;8.35;;
29206;SDS011;16247;50.840;4.382;2023-10-09T04:29:21;13.80;;;8.05;;
29206;SDS011;16247;50.840;4.382;2023-10-09T04:32:02;16.90;;;9.32;;
29206;SDS011;16247;50.840;4.382;2023-10-09T04:34:32;17.05;;;8.45;;
29206;SDS011;16247;50.840;4.382;2023-10-09T04:37:13;17.25;;;8.70;;
29206;SDS011;16247;50.840;4.382;2023-10-09T04:39:39;12.73;;;8.43;;
29206;SDS011;16247;50.840;4.382;2023-10-09T04:42:14;14.98;;;9.95;;
29206;SDS011;16247;50.840;4.382;2023-10-09T04:44:49;18.27;;;8.77;;
29206;SDS011;16247;50.840;4.382;2023-10-09T04:47:27;18.13;;;9.00;;
29206;SDS011;16247;50.840;4.382;2023-10-09T04:50:12;17.40;;;9.55;;
29206;SDS011;16247;50.840;4.382;2023-10-09T04:52:44;20.55;;;10.02;;
29206;SDS011;16247;50.840;4.382;2023-10-09T04:55:17;17.13;;;9.38;;
29206;SDS011;16247;50.840;4.382;2023-10-09T04:57:55;21.17;;;9.73;;
29206;SDS011;16247;50.840;4.382;2023-10-09T05:00:49;16.92;;;9.75;;
29206;SDS011;16247;50.840;4.382;2023-10-09T05:03:30;19.83;;;10.63;;
29206;SDS011;16247;50.840;4.382;2023-10-09T05:06:04;19.48;;;10.63;;
29206;SDS011;16247;50.840;4.382;2023-10-09T05:08:46;16.40;;;10.38;;
29206;SDS011;16247;50.840;4.382;2023-10-09T05:11:14;17.35;;;10.48;;
29206;SDS011;16247;50.840;4.382;2023-10-09T05:14:01;19.83;;;10.32;;
29206;SDS011;16247;50.840;4.382;2023-10-09T05:16:41;21.85;;;10.57;;
29206;SDS011;16247;50.840;4.382;2023-10-09T05:21:58;17.13;;;9.75;;
29206;SDS011;16247;50.840;4.382;2023-10-09T05:24:29;16.83;;;10.02;;
29206;SDS011;16247;50.840;4.382;2023-10-09T05:27:08;21.65;;;12.10;;
29206;SDS011;16247;50.840;4.382;2023-10-09T05:29:42;18.30;;;10.60;;
29206;SDS011;16247;50.840;4.382;2023-10-09T05:32:31;18.60;;;11.15;;
29206;SDS011;16247;50.840;4.382;2023-10-09T05:35:01;16.52;;;9.75;;
29206;SDS011;16247;50.840;4.382;2023-10-09T05:37:30;16.35;;;9.98;;
29206;SDS011;16247;50.840;4.382;2023-10-09T05:39:58;17.10;;;10.53;;
29206;SDS011;16247;50.840;4.382;2023-10-09T05:42:32;15.25;;;9.93;;
29206;SDS011;16247;50.840;4.382;2023-10-09T05:45:20;19.83;;;10.18;;
29206;SDS011;16247;50.840;4.382;2023-10-09T05:48:07;18.30;;;11.18;;
29206;SDS011;16247;50.840;4.382;2023-10-09T05:50:38;15.18;;;9.68;;
29206;SDS011;16247;50.840;4.382;2023-10-09T05:53:24;19.30;;;10.13;;
29206;SDS011;16247;50.840;4.382;2023-10-09T05:56:22;18.52;;;8.40;;
29206;SDS011;16247;50.840;4.382;2023-10-09T05:58:57;16.02;;;9.57;;
29206;SDS011;16247;50.840;4.382;2023-10-09T06:01:41;20.27;;;10.02;;
29206;SDS011;16247;50.840;4.382;2023-10-09T06:04:25;13.95;;;9.48;;
29206;SDS011;16247;50.840;4.382;2023-10-09T06:07:10;18.67;;;11.15;;
29206;SDS011;16247;50.840;4.382;2023-10-09T06:09:39;21.80;;;11.35;;
29206;SDS011;16247;50.840;4.382;2023-10-09T06:12:21;19.33;;;10.70;;
29206;SDS011;16247;50.840;4.382;2023-10-09T06:14:49;18.85;;;10.38;;
29206;SDS011;16247;50.840;4.382;2023-10-09T06:17:23;22.48;;;11.40;;
29206;SDS011;16247;50.840;4.382;2023-10-09T06:19:49;20.98;;;9.70;;
29206;SDS011;16247;50.840;4.382;2023-10-09T06:22:23;15.98;;;9.88;;
29206;SDS011;16247;50.840;4.382;2023-10-09T06:25:01;23.45;;;11.38;;
29206;SDS011;16247;50.840;4.382;2023-10-09T06:27:34;16.20;;;9.82;;
29206;SDS011;16247;50.840;4.382;2023-10-09T06:30:00;17.63;;;10.98;;
29206;SDS011;16247;50.840;4.382;2023-10-09T06:32:42;19.98;;;10.57;;
29206;SDS011;16247;50.840;4.382;2023-10-09T06:35:20;18.55;;;8.50;;
29206;SDS011;16247;50.840;4.382;2023-10-09T06:37:55;20.58;;;10.63;;
29206;SDS011;16247;50.840;4.382;2023-10-09T06:40:28;15.80;;;9.32;;
29206;SDS011;16247;50.840;4.382;2023-10-09T06:43:04;18.35;;;11.02;;
29206;SDS011;16247;50.840;4.382;2023-10-09T06:45:35;17.35;;;10.35;;
29206;SDS011;16247;50.840;4.382;2023-10-09T06:48:09;19.30;;;10.25;;
29206;SDS011;16247;50.840;4.382;2023-10-09T06:50:55;16.55;;;10.73;;
29206;SDS011;16247;50.840;4.382;2023-10-09T06:53:23;19.52;;;10.55;;
29206;SDS011;16247;50.840;4.382;2023-10-09T06:56:15;22.42;;;11.68;;
29206;SDS011;16247;50.840;4.382;2023-10-09T06:59:01;20.60;;;11.70;;
29206;SDS011;16247;50.840;4.382;2023-10-09T07:01:47;20.38;;;11.43;;
29206;SDS011;16247;50.840;4.382;2023-10-09T07:04:33;27.55;;;11.88;;
29206;SDS011;16247;50.840;4.382;2023-10-09T07:07:00;22.67;;;12.23;;
29206;SDS011;16247;50.840;4.382;2023-10-09T07:09:32;21.48;;;13.60;;
29206;SDS011;16247;50.840;4.382;2023-10-09T07:12:08;20.90;;;11.85;;
29206;SDS011;16247;50.840;4.382;2023-10-09T07:15:00;20.95;;;12.27;;
29206;SDS011;16247;50.840;4.382;2023-10-09T07:17:47;27.95;;;12.60;;
29206;SDS011;16247;50.840;4.382;2023-10-09T07:20:17;24.38;;;12.68;;
29206;SDS011;16247;50.840;4.382;2023-10-09T07:23:02;25.23;;;12.77;;
29206;SDS011;16247;50.840;4.382;2023-10-09T07:25:41;26.95;;;13.60;;
29206;SDS011;16247;50.840;4.382;2023-10-09T07:28:20;26.20;;;12.88;;
29206;SDS011;16247;50.840;4.382;2023-10-09T07:31:02;25.63;;;12.50;;
29206;SDS011;16247;50.840;4.382;2023-10-09T07:33:28;24.35;;;12.45;;
29206;SDS011;16247;50.840;4.382;2023-10-09T07:36:12;23.98;;;13.13;;
29206;SDS011;16247;50.840;4.382;2023-10-09T07:38:39;20.33;;;13.10;;
29206;SDS011;16247;50.840;4.382;2023-10-09T07:41:09;25.02;;;13.82;;
29206;SDS011;16247;50.840;4.382;2023-10-09T07:43:41;25.38;;;14.07;;
29206;SDS011;16247;50.840;4.382;2023-10-09T07:46:13;22.88;;;13.20;;
29206;SDS011;16247;50.840;4.382;2023-10-09T07:49:21;25.27;;;13.80;;
29206;SDS011;16247;50.840;4.382;2023-10-09T07:51:54;20.48;;;12.80;;
29206;SDS011;16247;50.840;4.382;2023-10-09T07:54:20;23.08;;;13.68;;
29206;SDS011;16247;50.840;4.382;2023-10-09T07:57:02;25.50;;;13.90;;
29206;SDS011;16247;50.840;4.382;2023-10-09T07:59:42;27.38;;;14.05;;
29206;SDS011;16247;50.840;4.382;2023-10-09T08:02:48;21.02;;;13.02;;
29206;SDS011;16247;50.840;4.382;2023-10-09T08:05:15;24.98;;;13.38;;
29206;SDS011;16247;50.840;4.382;2023-10-09T08:07:45;20.95;;;14.07;;
29206;SDS011;16247;50.840;4.382;2023-10-09T08:12:48;24.55;;;13.75;;
29206;SDS011;16247;50.840;4.382;2023-10-09T08:15:23;20.25;;;13.57;;
29206;SDS011;16247;50.840;4.382;2023-10-09T08:18:22;26.58;;;14.43;;
29206;SDS011;16247;50.840;4.382;2023-10-09T08:20:54;18.70;;;12.15;;
29206;SDS011;16247;50.840;4.382;2023-10-09T08:23:25;26.55;;;14.40;;
29206;SDS011;16247;50.840;4.382;2023-10-09T08:26:13;25.27;;;13.90;;
29206;SDS011;16247;50.840;4.382;2023-10-09T08:28:55;23.23;;;14.35;;
29206;SDS011;16247;50.840;4.382;2023-10-09T08:31:42;22.13;;;14.38;;
29206;SDS011;16247;50.840;4.382;2023-10-09T08:34:13;21.58;;;13.55;;
29206;SDS011;16247;50.840;4.382;2023-10-09T08:36:53;25.88;;;14.45;;
29206;SDS011;16247;50.840;4.382;2023-10-09T08:39:20;33.95;;;15.52;;
29206;SDS011;16247;50.840;4.382;2023-10-09T08:41:55;24.02;;;14.18;;
29206;SDS011;16247;50.840;4.382;2023-10-09T08:44:26;23.95;;;12.48;;
29206;SDS011;16247;50.840;4.382;2023-10-09T08:46:56;23.25;;;13.30;;
29206;SDS011;16247;50.840;4.382;2023-10-09T08:49:29;25.63;;;14.00;;
29206;SDS011;16247;50.840;4.382;2023-10-09T08:51:58;26.17;;;15.57;;
29206;SDS011;16247;50.840;4.382;2023-10-09T08:54:29;18.17;;;13.15;;
29206;SDS011;16247;50.840;4.382;2023-10-09T08:57:09;25.23;;;13.23;;
29206;SDS011;16247;50.840;4.382;2023-10-09T08:59:40;21.20;;;13.30;;
29206;SDS011;16247;50.840;4.382;2023-10-09T09:02:07;26.45;;;14.27;;
29206;SDS011;16247;50.840;4.382;2023-10-09T09:04:51;28.73;;;14.10;;
29206;SDS011;16247;50.840;4.382;2023-10-09T09:07:29;23.23;;;13.10;;
29206;SDS011;16247;50.840;4.382;2023-10-09T09:10:04;18.85;;;12.75;;
29206;SDS011;16247;50.840;4.382;2023-10-09T09:12:51;25.17;;;13.23;;
29206;SDS011;16247;50.840;4.382;2023-10-09T09:15:27;22.48;;;14.07;;
29206;SDS011;16247;50.840;4.382;2023-10-09T09:18:07;23.90;;;13.32;;
29206;SDS011;16247;50.840;4.382;2023-10-09T09:20:44;24.45;;;13.25;;
29206;SDS011;16247;50.840;4.382;2023-10-09T09:23:20;21.83;;;13.57;;
29206;SDS011;16247;50.840;4.382;2023-10-09T09:25:49;24.92;;;14.68;;
29206;SDS011;16247;50.840;4.382;2023-10-09T09:28:24;26.92;;;14.35;;
29206;SDS011;16247;50.840;4.382;2023-10-09T09:31:08;24.13;;;12.27;;
29206;SDS011;16247;50.840;4.382;2023-10-09T09:33:40;21.67;;;13.27;;
29206;SDS011;16247;50.840;4.382;2023-10-09T09:38:38;19.38;;;12.75;;
29206;SDS011;16247;50.840;4.382;2023-10-09T09:41:08;24.63;;;13.07;;
29206;SDS011;16247;50.840;4.382;2023-10-09T09:43:36;20.08;;;12.90;;
29206;SDS011;16247;50.840;4.382;2023-10-09T09:46:06;22.10;;;13.43;;
29206;SDS011;16247;50.840;4.382;2023-10-09T09:48:37;22.85;;;13.15;;
29206;SDS011;16247;50.840;4.382;2023-10-09T09:51:11;26.73;;;13.50;;
29206;SDS011;16247;50.840;4.382;2023-10-09T09:53:41;24.17;;;14.40;;
29206;SDS011;16247;50.840;4.382;2023-10-09T09:56:12;22.40;;;13.13;;
29206;SDS011;16247;50.840;4.382;2023-10-09T09:58:43;22.38;;;13.05;;
29206;SDS011;16247;50.840;4.382;2023-10-09T10:03:49;25.08;;;12.65;;
29206;SDS011;16247;50.840;4.382;2023-10-09T10:06:28;23.95;;;13.85;;
29206;SDS011;16247;50.840;4.382;2023-10-09T10:08:59;19.02;;;11.50;;
29206;SDS011;16247;50.840;4.382;2023-10-09T10:14:31;21.23;;;13.73;;
29206;SDS011;16247;50.840;4.382;2023-10-09T10:22:28;25.20;;;13.73;;
29206;SDS011;16247;50.840;4.382;2023-10-09T10:24:55;22.63;;;12.82;;
29206;SDS011;16247;50.840;4.382;2023-10-09T10:27:28;24.80;;;14.15;;
29206;SDS011;16247;50.840;4.382;2023-10-09T10:30:29;19.83;;;12.83;;
29206;SDS011;16247;50.840;4.382;2023-10-09T10:33:03;27.33;;;13.95;;
29206;SDS011;16247;50.840;4.382;2023-10-09T10:35:37;22.30;;;13.75;;
29206;SDS011;16247;50.840;4.382;2023-10-09T10:41:18;26.25;;;13.13;;
29206;SDS011;16247;50.840;4.382;2023-10-09T10:43:48;23.20;;;14.02;;
29206;SDS011;16247;50.840;4.382;2023-10-09T10:46:18;24.20;;;13.63;;
29206;SDS011;16247;50.840;4.382;2023-10-09T10:49:11;20.00;;;13.18;;
29206;SDS011;16247;50.840;4.382;2023-10-09T10:51:40;21.55;;;12.50;;
29206;SDS011;16247;50.840;4.382;2023-10-09T10:54:23;25.08;;;13.18;;
29206;SDS011;16247;50.840;4.382;2023-10-09T10:57:17;23.05;;;13.57;;
29206;SDS011;16247;50.840;4.382;2023-10-09T11:00:11;21.60;;;12.85;;
29206;SDS011;16247;50.840;4.382;2023-10-09T11:02:58;20.27;;;12.80;;
29206;SDS011;16247;50.840;4.382;2023-10-09T11:05:43;20.73;;;12.75;;
29206;SDS011;16247;50.840;4.382;2023-10-09T11:08:19;19.83;;;12.00;;
29206;SDS011;16247;50.840;4.382;2023-10-09T11:11:13;21.52;;;12.07;;
29206;SDS011;16247;50.840;4.382;2023-10-09T11:13:43;19.02;;;11.90;;
29206;SDS011;16247;50.840;4.382;2023-10-09T11:19:20;17.50;;;11.63;;
29206;SDS011;16247;50.840;4.382;2023-10-09T11:22:32;22.15;;;10.45;;
29206;SDS011;16247;50.840;4.382;2023-10-09T11:25:04;23.25;;;11.75;;
29206;SDS011;16247;50.840;4.382;2023-10-09T11:28:23;19.02;;;10.63;;
29206;SDS011;16247;50.840;4.382;2023-10-09T11:31:16;19.75;;;11.95;;
29206;SDS011;16247;50.840;4.382;2023-10-09T12:04:02;23.30;;;11.90;;
29206;SDS011;16247;50.840;4.382;2023-10-09T12:06:49;20.92;;;11.45;;
29206;SDS011;16247;50.840;4.382;2023-10-09T12:09:32;14.68;;;10.48;;
29206;SDS011;16247;50.840;4.382;2023-10-09T12:12:05;18.98;;;11.32;;
29206;SDS011;16247;50.840;4.382;2023-10-09T12:14:40;19.90;;;11.07;;
29206;SDS011;16247;50.840;4.382;2023-10-09T12:17:07;20.92;;;10.52;;
29206;SDS011;16247;50.840;4.382;2023-10-09T12:19:37;21.00;;;11.50;;
29206;SDS011;16247;50.840;4.382;2023-10-09T12:22:10;25.17;;;12.02;;
29206;SDS011;16247;50.840;4.382;2023-10-09T12:24:41;16.58;;;10.57;;
29206;SDS011;16247;50.840;4.382;2023-10-09T12:27:09;15.88;;;10.70;;
29206;SDS011;16247;50.840;4.382;2023-10-09T12:32:02;22.27;;;12.40;;
29206;SDS011;16247;50.840;4.382;2023-10-09T12:34:37;19.90;;;10.80;;
29206;SDS011;16247;50.840;4.382;2023-10-09T12:37:07;17.58;;;11.07;;
29206;SDS011;16247;50.840;4.382;2023-10-09T12:39:33;16.13;;;10.38;;
29206;SDS011;16247;50.840;4.382;2023-10-09T12:42:06;22.25;;;10.57;;
29206;SDS011;16247;50.840;4.382;2023-10-09T12:47:08;18.55;;;10.98;;
29206;SDS011;16247;50.840;4.382;2023-10-09T12:49:40;18.83;;;10.02;;
29206;SDS011;16247;50.840;4.382;2023-10-09T12:52:08;17.77;;;11.05;;
29206;SDS011;16247;50.840;4.382;2023-10-09T12:54:44;19.13;;;10.30;;
29206;SDS011;16247;50.840;4.382;2023-10-09T12:57:12;17.80;;;10.57;;
29206;SDS011;16247;50.840;4.382;2023-10-09T12:59:44;15.80;;;10.32;;
29206;SDS011;16247;50.840;4.382;2023-10-09T13:02:16;17.08;;;9.95;;
29206;SDS011;16247;50.840;4.382;2023-10-09T13:05:02;18.70;;;10.90;;
29206;SDS011;16247;50.840;4.382;2023-10-09T13:07:37;14.25;;;9.55;;
29206;SDS011;16247;50.840;4.382;2023-10-09T13:10:13;22.63;;;10.88;;
29206;SDS011;16247;50.840;4.382;2023-10-09T13:12:47;20.63;;;10.80;;
29206;SDS011;16247;50.840;4.382;2023-10-09T13:15:21;19.98;;;10.70;;
29206;SDS011;16247;50.840;4.382;2023-10-09T13:18:21;19.92;;;10.15;;
29206;SDS011;16247;50.840;4.382;2023-10-09T13:20:50;15.32;;;10.05;;
29206;SDS011;16247;50.840;4.382;2023-10-09T13:23:17;17.38;;;10.27;;
29206;SDS011;16247;50.840;4.382;2023-10-09T13:25:44;19.75;;;11.55;;
29206;SDS011;16247;50.840;4.382;2023-10-09T13:28:11;20.73;;;11.23;;
29206;SDS011;16247;50.840;4.382;2023-10-09T13:30:48;22.02;;;11.52;;
29206;SDS011;16247;50.840;4.382;2023-10-09T13:33:15;24.55;;;10.98;;
29206;SDS011;16247;50.840;4.382;2023-10-09T13:35:47;20.80;;;11.27;;
29206;SDS011;16247;50.840;4.382;2023-10-09T13:38:19;16.58;;;10.32;;
29206;SDS011;16247;50.840;4.382;2023-10-09T13:40:57;17.33;;;10.50;;
29206;SDS011;16247;50.840;4.382;2023-10-09T13:43:33;30.02;;;11.90;;
29206;SDS011;16247;50.840;4.382;2023-10-09T13:45:59;32.22;;;13.02;;
29206;SDS011;16247;50.840;4.382;2023-10-09T13:48:31;16.77;;;10.70;;
29206;SDS011;16247;50.840;4.382;2023-10-09T13:51:12;20.88;;;12.55;;
29206;SDS011;16247;50.840;4.382;2023-10-09T14:04:15;21.33;;;11.95;;
29206;SDS011;16247;50.840;4.382;2023-10-09T14:06:55;19.33;;;10.98;;
29206;SDS011;16247;50.840;4.382;2023-10-09T14:09:36;17.88;;;10.95;;
29206;SDS011;16247;50.840;4.382;2023-10-09T14:12:59;21.08;;;10.70;;
29206;SDS011;16247;50.840;4.382;2023-10-09T14:16:04;25.70;;;12.32;;
29206;SDS011;16247;50.840;4.382;2023-10-09T14:19:20;16.83;;;11.65;;
29206;SDS011;16247;50.840;4.382;2023-10-09T14:22:10;16.42;;;10.68;;
29206;SDS011;16247;50.840;4.382;2023-10-09T14:25:42;21.52;;;12.65;;
29206;SDS011;16247;50.840;4.382;2023-10-09T14:28:11;21.10;;;11.70;;
29206;SDS011;16247;50.840;4.382;2023-10-09T14:30:40;17.40;;;11.05;;
29206;SDS011;16247;50.840;4.382;2023-10-09T15:52:04;22.52;;;13.15;;
29206;SDS011;16247;50.840;4.382;2023-10-09T15:54:34;19.50;;;12.98;;
29206;SDS011;16247;50.840;4.382;2023-10-09T15:57:15;26.00;;;13.00;;
29206;SDS011;16247;50.840;4.382;2023-10-09T15:59:42;23.27;;;12.48;;
29206;SDS011;16247;50.840;4.382;2023-10-09T16:02:10;22.90;;;12.70;;
29206;SDS011;16247;50.840;4.382;2023-10-09T16:04:44;20.13;;;12.30;;
29206;SDS011;16247;50.840;4.382;2023-10-09T16:09:46;21.85;;;12.23;;
29206;SDS011;16247;50.840;4.382;2023-10-09T16:12:12;24.85;;;12.75;;
29206;SDS011;16247;50.840;4.382;2023-10-09T16:14:39;23.20;;;13.05;;
29206;SDS011;16247;50.840;4.382;2023-10-09T16:19:34;22.33;;;13.07;;
29206;SDS011;16247;50.840;4.382;2023-10-09T16:22:01;20.05;;;12.25;;
29206;SDS011;16247;50.840;4.382;2023-10-09T16:24:30;20.87;;;11.77;;
29206;SDS011;16247;50.840;4.382;2023-10-09T16:27:00;18.23;;;12.57;;
29206;SDS011;16247;50.840;4.382;2023-10-09T16:29:26;22.35;;;13.00;;
29206;SDS011;16247;50.840;4.382;2023-10-09T16:31:57;19.52;;;13.15;;
29206;SDS011;16247;50.840;4.382;2023-10-09T16:34:23;22.42;;;13.27;;
29206;SDS011;16247;50.840;4.382;2023-10-09T16:39:26;23.30;;;11.93;;
29206;SDS011;16247;50.840;4.382;2023-10-09T16:42:04;20.30;;;12.87;;
29206;SDS011;16247;50.840;4.382;2023-10-09T16:44:40;23.40;;;13.43;;
29206;SDS011;16247;50.840;4.382;2023-10-09T16:47:12;19.33;;;11.27;;
29206;SDS011;16247;50.840;4.382;2023-10-09T16:52:36;20.33;;;13.13;;
29206;SDS011;16247;50.840;4.382;2023-10-09T16:55:45;18.70;;;12.70;;
29206;SDS011;16247;50.840;4.382;2023-10-09T16:58:47;20.70;;;12.88;;
29206;SDS011;16247;50.840;4.382;2023-10-09T17:04:01;20.35;;;11.90;;
29206;SDS011;16247;50.840;4.382;2023-10-09T17:06:51;19.35;;;12.32;;
29206;SDS011;16247;50.840;4.382;2023-10-09T17:09:27;21.30;;;12.63;;
29206;SDS011;16247;50.840;4.382;2023-10-09T17:12:34;21.95;;;12.52;;
29206;SDS011;16247;50.840;4.382;2023-10-09T17:18:26;29.27;;;12.55;;
29206;SDS011;16247;50.840;4.382;2023-10-09T17:23:34;20.60;;;11.25;;
29206;SDS011;16247;50.840;4.382;2023-10-09T17:26:41;22.73;;;12.70;;
29206;SDS011;16247;50.840;4.382;2023-10-09T17:29:30;16.42;;;10.65;;
29206;SDS011;16247;50.840;4.382;2023-10-09T17:35:47;16.42;;;10.90;;
29206;SDS011;16247;50.840;4.382;2023-10-09T17:42:02;19.70;;;11.88;;
29206;SDS011;16247;50.840;4.382;2023-10-09T17:52:46;19.63;;;11.45;;
29206;SDS011;16247;50.840;4.382;2023-10-09T17:56:08;19.05;;;11.45;;
29206;SDS011;16247;50.840;4.382;2023-10-09T18:57:16;18.08;;;11.77;;
29206;SDS011;16247;50.840;4.382;2023-10-09T19:00:14;20.65;;;12.50;;
29206;SDS011;16247;50.840;4.382;2023-10-09T19:02:59;22.75;;;12.40;;
29206;SDS011;16247;50.840;4.382;2023-10-09T19:05:43;23.05;;;12.07;;
29206;SDS011;16247;50.840;4.382;2023-10-09T19:08:16;20.83;;;12.90;;
29206;SDS011;16247;50.840;4.382;2023-10-09T19:31:37;24.35;;;13.77;;
29206;SDS011;16247;50.840;4.382;2023-10-09T19:50:16;21.58;;;13.60;;
29206;SDS011;16247;50.840;4.382;2023-10-09T19:58:24;23.00;;;13.02;;
29206;SDS011;16247;50.840;4.382;2023-10-09T20:06:22;23.83;;;14.55;;